Flight Track Log - Related Links

Times and Time Zones

All times are in EDT time to prevent confusion due to time zone crossing. See the CES2927 flight status page for this flight to view local times or setup timezone preferences in your user account.

Time Position Orientation Groundspeed Altitude Reporting Facility
EDT Latitude Longitude Course Direction KTS MPH feet Rate Location/Type
Wed 06:20:00 AM 29.8883 118.9003 220° Southwest  Level Estimated
Wed 06:21:00 AM 29.8114 118.8288 219° Southwest  Level Estimated
Wed 06:22:00 AM 29.7345 118.7573 219° Southwest  Level Estimated
Wed 06:23:00 AM 29.6575 118.6860 219° Southwest  Level Estimated
Wed 06:24:00 AM 29.5804 118.6147 219° Southwest  Level Estimated
Wed 06:25:00 AM 29.5034 118.5436 219° Southwest  Level Estimated
Wed 06:26:00 AM 29.4263 118.4726 219° Southwest  Level Estimated
Wed 06:27:00 AM 29.3491 118.4017 219° Southwest  Level Estimated
Wed 06:28:00 AM 29.2719 118.3309 219° Southwest  Level Estimated
Wed 06:29:00 AM 29.1947 118.2602 219° Southwest  Level Estimated
Wed 06:30:00 AM 29.1174 118.1896 219° Southwest  Level Estimated
Wed 06:31:00 AM 29.0401 118.1191 219° Southwest  Level Estimated
Wed 06:32:00 AM 28.9628 118.0487 219° Southwest  Level Estimated
Wed 06:33:00 AM 28.8854 117.9784 219° Southwest  Level Estimated
Wed 06:34:00 AM 28.8080 117.9083 218° Southwest  Level Estimated
Wed 06:35:00 AM 28.7306 117.8382 218° Southwest  Level Estimated
Wed 06:36:00 AM 28.6531 117.7682 218° Southwest  Level Estimated
Wed 06:37:00 AM 28.5756 117.6984 218° Southwest  Level Estimated
Wed 06:38:00 AM 28.4980 117.6286 218° Southwest  Level Estimated
Wed 06:39:00 AM 28.4205 117.5590 218° Southwest  Level Estimated
Wed 06:40:00 AM 28.3428 117.4894 218° Southwest  Level Estimated
Wed 06:41:00 AM 28.2652 117.4200 218° Southwest  Level Estimated
Wed 06:42:00 AM 28.1875 117.3506 218° Southwest  Level Estimated
Wed 06:43:00 AM 28.1098 117.2814 218° Southwest  Level Estimated
Wed 06:44:00 AM 28.0320 117.2122 218° Southwest  Level Estimated
Wed 06:45:00 AM 27.9542 117.1432 218° Southwest  Level Estimated
Wed 06:46:00 AM 27.8764 117.0742 218° Southwest  Level Estimated
Wed 06:47:00 AM 27.7985 117.0054 218° Southwest  Level Estimated
Wed 06:48:00 AM 27.7206 116.9366 218° Southwest  Level Estimated
Wed 06:49:00 AM 27.6427 116.8680 218° Southwest  Level Estimated
Wed 06:50:00 AM 27.5647 116.7994 218° Southwest  Level Estimated
Wed 06:51:00 AM 27.4867 116.7310 218° Southwest  Level Estimated
Wed 06:52:00 AM 27.4087 116.6626 218° Southwest  Level Estimated
Wed 06:53:00 AM 27.3306 116.5944 218° Southwest  Level Estimated
Wed 06:54:00 AM 27.2525 116.5262 218° Southwest  Level Estimated
Wed 06:55:00 AM 27.1744 116.4581 218° Southwest  Level Estimated
Wed 06:56:00 AM 27.0962 116.3901 218° Southwest  Level Estimated
Wed 06:57:00 AM 27.0180 116.3223 218° Southwest  Level Estimated
Wed 06:58:00 AM 26.9398 116.2545 218° Southwest  Level Estimated
Wed 06:59:00 AM 26.8615 116.1868 218° Southwest  Level Estimated
Wed 07:00:00 AM 26.7832 116.1192 218° Southwest  Level Estimated
Wed 07:01:00 AM 26.7049 116.0517 218° Southwest  Level Estimated
Wed 07:02:00 AM 26.6265 115.9843 218° Southwest  Level Estimated
Wed 07:03:00 AM 26.5481 115.9169 218° Southwest  Level Estimated
Wed 07:04:00 AM 26.4697 115.8497 218° Southwest  Level Estimated
Wed 07:05:00 AM 26.3913 115.7826 217° Southwest  Level Estimated
Wed 07:06:00 AM 26.3128 115.7155 217° Southwest  Level Estimated
Wed 07:07:00 AM 26.2343 115.6486 217° Southwest  Level Estimated
Wed 07:08:00 AM 26.1557 115.5817 217° Southwest  Level Estimated
Wed 07:09:00 AM 26.0771 115.5149 217° Southwest  Level Estimated
Wed 07:10:00 AM 25.9985 115.4482 217° Southwest  Level Estimated
Wed 07:11:00 AM 25.9199 115.3817 217° Southwest  Level Estimated
Wed 07:12:00 AM 25.8412 115.3151 217° Southwest  Level Estimated
Wed 07:13:00 AM 25.7625 115.2487 217° Southwest  Level Estimated
Wed 07:14:00 AM 25.6838 115.1824 217° Southwest  Level Estimated
Wed 07:15:00 AM 25.6050 115.1161 217° Southwest  Level Estimated
Wed 07:16:00 AM 25.5262 115.0500 217° Southwest  Level Estimated
Wed 07:17:00 AM 25.4474 114.9839 217° Southwest  Level Estimated
Wed 07:18:00 AM 25.3686 114.9179 217° Southwest  Level Estimated
Wed 07:19:00 AM 25.2897 114.8520 217° Southwest  Level Estimated
Wed 07:20:00 AM 25.2108 114.7862 217° Southwest  Level Estimated
Wed 07:21:00 AM 25.1318 114.7205 217° Southwest  Level Estimated
Wed 07:22:00 AM 25.0529 114.6549 217° Southwest  Level Estimated
Wed 07:23:00 AM 24.9739 114.5893 217° Southwest  Level Estimated
Wed 07:24:00 AM 24.8949 114.5238 217° Southwest  Level Estimated
Wed 07:25:00 AM 24.8158 114.4584 217° Southwest  Level Estimated
Wed 07:26:00 AM 24.7367 114.3931 217° Southwest  Level Estimated
Wed 07:27:00 AM 24.6576 114.3279 217° Southwest  Level Estimated
Wed 07:28:00 AM 24.5785 114.2628 217° Southwest  Level Estimated
Wed 07:29:00 AM 24.4993 114.1977 217° Southwest  Level Estimated
Wed 07:30:00 AM 24.4201 114.1328 217° Southwest  Level Estimated
Wed 07:31:00 AM 24.3409 114.0678 217° Southwest  Level Estimated
Wed 07:32:00 AM 24.2617 114.0030 217° Southwest  Level Estimated
Wed 07:33:00 AM 24.1824 113.9383 217° Southwest  Level Estimated
Wed 07:34:00 AM 24.1031 113.8737 217° Southwest  Level Estimated
Wed 07:35:00 AM 24.0238 113.8091 217° Southwest  Level Estimated
Wed 07:36:00 AM 23.9444 113.7446 217° Southwest  Level Estimated
Wed 07:37:00 AM 23.8650 113.6802 217° Southwest  Level Estimated
Wed 07:38:00 AM 23.7856 113.6159 217° Southwest  Level Estimated
Wed 07:39:00 AM 23.7062 113.5516 217° Southwest  Level Estimated
Wed 07:40:00 AM 23.6267 113.4874 217° Southwest  Level Estimated
Wed 07:41:00 AM 23.5472 113.4233 216° Southwest  Level Estimated
Wed 07:42:00 AM 23.4677 113.3593 216° Southwest  Level Estimated
Wed 07:43:00 AM 23.3924 113.2988 216° Southwest  Level Estimated
Wed 07:44:00 AM 23.3924 113.2988 North  Level Estimated
Wed 07:45:00 AM 23.3924 113.2988 North  Level Estimated
Wed 07:46:00 AM 23.3924 113.2988 North  Level Estimated
Wed 07:47:00 AM 23.3924 113.2988 North  Level Estimated
Wed 07:48:00 AM 23.3924 113.2988 North  Level Estimated
Wed 07:49:00 AM 23.3924 113.2988 North  Level Estimated
Wed 07:50:00 AM 23.3924 113.2988 North  Level Estimated
Wed 07:51:00 AM 23.3924 113.2988 North  Level Estimated
Wed 07:52:00 AM 23.3924 113.2988 North  Level Estimated
Wed 07:53:00 AM 23.3924 113.2988 North  Level Estimated
Wed 07:54:00 AM 23.3924 113.2988 North  Level Estimated
Wed 07:55:00 AM 23.3924 113.2988 North  Level Estimated
Wed 07:56:00 AM 23.3924 113.2988 North  Level Estimated
Wed 07:57:00 AM 23.3924 113.2988 North  Level Estimated
Wed 07:58:00 AM 23.3924 113.2988 North  Level Estimated
Wed 07:59:00 AM 23.3924 113.2988 North  Level Estimated
Wed 08:00:00 AM 23.3924 113.2988 North  Level Estimated
Wed 08:01:00 AM 23.3924 113.2988 North  Level Estimated

Login

Don't have an account? Register now (free) for customized features, flight alerts, and more!